createdAt,value
2018-11-01T00:01:02.318Z,3.70
2018-11-01T00:03:31.992Z,5.30
2018-11-01T00:06:00.549Z,3.23
2018-11-01T00:08:29.986Z,3.80
2018-11-01T00:11:00.050Z,4.40
2018-11-01T00:13:29.388Z,3.70
2018-11-01T00:15:57.950Z,4.40
2018-11-01T00:18:28.570Z,3.47
2018-11-01T00:20:57.918Z,4.30
2018-11-01T00:23:27.429Z,3.43
2018-11-01T00:25:56.671Z,4.27
2018-11-01T00:28:25.729Z,5.43
2018-11-01T00:30:54.634Z,6.77
2018-11-01T00:33:23.486Z,6.30
2018-11-01T00:35:52.844Z,7.40
2018-11-01T00:38:22.285Z,5.70
2018-11-01T00:40:51.803Z,5.03
2018-11-01T00:43:21.270Z,4.40
2018-11-01T00:45:50.699Z,3.90
2018-11-01T00:48:21.025Z,5.60
2018-11-01T00:50:51.155Z,4.93
2018-11-01T00:53:20.683Z,6.43
2018-11-01T00:55:50.715Z,4.87
2018-11-01T00:58:21.465Z,4.10
2018-11-01T01:00:50.793Z,4.93
2018-11-01T01:03:21.795Z,6.30
2018-11-01T01:05:50.670Z,5.33
2018-11-01T01:08:19.720Z,4.53
2018-11-01T01:10:48.800Z,6.90
2018-11-01T01:13:17.384Z,8.40
2018-11-01T01:15:47.365Z,5.87
2018-11-01T01:18:17.031Z,5.90
2018-11-01T01:20:47.396Z,7.70
2018-11-01T01:23:16.691Z,5.67
2018-11-01T01:25:45.481Z,6.10
2018-11-01T01:28:14.989Z,7.50
2018-11-01T01:30:44.006Z,6.73
2018-11-01T01:33:12.771Z,6.27
2018-11-01T01:35:42.384Z,4.10
2018-11-01T01:38:11.252Z,4.10
2018-11-01T01:40:41.641Z,4.13
2018-11-01T01:43:11.044Z,6.23
2018-11-01T01:45:39.692Z,5.73
2018-11-01T01:48:08.910Z,5.33
2018-11-01T01:50:38.127Z,5.73
2018-11-01T01:53:07.594Z,5.20
2018-11-01T01:55:36.980Z,4.47
2018-11-01T01:58:06.693Z,7.27
2018-11-01T02:00:36.218Z,9.30
2018-11-01T02:03:04.888Z,4.27
2018-11-01T02:05:34.137Z,5.07
2018-11-01T02:08:02.679Z,5.40
2018-11-01T02:10:32.532Z,3.60
2018-11-01T02:13:01.104Z,5.30
2018-11-01T02:15:31.839Z,6.10
2018-11-01T02:18:00.408Z,8.17
2018-11-01T02:20:28.967Z,4.27
2018-11-01T02:22:57.855Z,5.70
2018-11-01T02:25:27.119Z,4.17
2018-11-01T02:28:01.653Z,4.07
2018-11-01T02:30:31.201Z,6.50
2018-11-01T02:33:00.166Z,5.23
2018-11-01T02:35:29.605Z,5.27
2018-11-01T02:37:58.971Z,3.37
2018-11-01T02:40:28.241Z,4.40
2018-11-01T02:42:58.242Z,4.07
2018-11-01T02:45:27.514Z,4.80
2018-11-01T02:47:56.665Z,5.17
2018-11-01T02:50:27.106Z,4.03
2018-11-01T02:52:56.791Z,4.80
2018-11-01T02:55:26.800Z,4.87
2018-11-01T02:57:56.952Z,5.23
2018-11-01T03:00:26.375Z,5.33
2018-11-01T03:02:56.108Z,6.37
2018-11-01T03:05:25.364Z,4.93
2018-11-01T03:07:54.743Z,4.60
2018-11-01T03:10:23.946Z,5.97
2018-11-01T03:12:52.830Z,4.57
2018-11-01T03:15:21.638Z,7.30
2018-11-01T03:17:50.777Z,5.50
2018-11-01T03:20:19.864Z,6.53
2018-11-01T03:22:49.372Z,4.90
2018-11-01T03:25:18.294Z,4.53
2018-11-01T03:27:47.509Z,4.57
2018-11-01T03:30:17.763Z,3.77
2018-11-01T03:32:47.619Z,6.07
2018-11-01T03:35:17.004Z,6.00
2018-11-01T03:37:46.242Z,7.30
2018-11-01T03:40:15.882Z,5.30
2018-11-01T03:42:45.446Z,5.77
2018-11-01T03:45:14.176Z,5.63
2018-11-01T03:47:43.146Z,7.30
2018-11-01T03:50:12.840Z,4.97
2018-11-01T03:52:42.206Z,5.57
2018-11-01T03:55:12.608Z,6.57
2018-11-01T03:57:42.361Z,6.03
2018-11-01T04:00:16.468Z,5.03
2018-11-01T04:02:46.889Z,3.90
2018-11-01T04:05:17.164Z,4.77
2018-11-01T04:07:47.582Z,4.40
2018-11-01T04:10:18.409Z,6.67
2018-11-01T04:12:48.152Z,4.17
2018-11-01T04:15:18.560Z,4.90
2018-11-01T04:17:48.617Z,5.23
2018-11-01T04:20:17.178Z,4.70
2018-11-01T04:22:47.859Z,8.83
2018-11-01T04:25:17.190Z,5.60
2018-11-01T04:27:47.263Z,4.80
2018-11-01T04:30:19.766Z,5.40
2018-11-01T04:32:48.342Z,6.63
2018-11-01T04:35:18.959Z,4.97
2018-11-01T04:37:47.550Z,4.27
2018-11-01T04:40:18.617Z,5.27
2018-11-01T04:42:48.298Z,5.20
2018-11-01T04:45:17.210Z,4.37
2018-11-01T04:47:46.103Z,4.90
2018-11-01T04:50:14.882Z,3.50
2018-11-01T04:52:44.786Z,4.23
2018-11-01T04:55:14.162Z,4.60
2018-11-01T04:57:42.760Z,3.73
2018-11-01T05:00:13.780Z,7.03
2018-11-01T05:02:44.038Z,4.70
2018-11-01T05:05:13.362Z,5.27
2018-11-01T05:07:43.590Z,5.77
2018-11-01T05:10:13.587Z,5.83
2018-11-01T05:12:43.416Z,4.63
2018-11-01T05:15:14.043Z,4.57
2018-11-01T05:17:43.563Z,4.33
2018-11-01T05:20:14.918Z,5.23
2018-11-01T05:22:44.299Z,3.70
2018-11-01T05:25:13.581Z,4.93
2018-11-01T05:27:43.133Z,4.67
2018-11-01T05:30:13.847Z,4.80
2018-11-01T05:32:45.032Z,4.57
2018-11-01T05:35:15.051Z,7.60
2018-11-01T05:37:43.894Z,6.73
2018-11-01T05:40:13.033Z,8.03
2018-11-01T05:42:43.541Z,10.63
2018-11-01T05:45:13.527Z,7.87
2018-11-01T05:47:43.534Z,5.57
2018-11-01T05:50:12.428Z,5.70
2018-11-01T05:52:42.757Z,6.70
2018-11-01T05:55:12.739Z,7.87
2018-11-01T05:57:44.098Z,4.57
2018-11-01T06:00:14.562Z,8.20
2018-11-01T06:02:47.254Z,9.27
2018-11-01T06:05:17.853Z,5.30
2018-11-01T06:07:50.266Z,6.00
2018-11-01T06:10:20.064Z,4.60
2018-11-01T06:12:49.850Z,5.30
2018-11-01T06:15:19.095Z,6.60
2018-11-01T06:17:49.245Z,8.10
2018-11-01T06:20:18.351Z,8.93
2018-11-01T06:22:47.828Z,12.47
2018-11-01T06:25:18.020Z,6.10
2018-11-01T06:27:47.331Z,6.17
2018-11-01T06:30:17.908Z,6.27
2018-11-01T06:32:48.909Z,5.60
2018-11-01T06:35:21.495Z,5.27
2018-11-01T06:37:50.481Z,4.57
2018-11-01T06:40:19.758Z,6.10
2018-11-01T06:42:49.086Z,6.57
2018-11-01T06:45:18.608Z,8.53
2018-11-01T06:47:48.804Z,5.00
2018-11-01T06:50:19.396Z,6.60
2018-11-01T06:52:49.716Z,7.40
2018-11-01T06:55:19.232Z,6.97
2018-11-01T06:57:48.488Z,12.33
2018-11-01T07:00:17.442Z,6.97
2018-11-01T07:02:46.722Z,6.07
2018-11-01T07:05:16.125Z,6.43
2018-11-01T07:07:45.825Z,7.73
2018-11-01T07:10:15.740Z,8.43
2018-11-01T07:12:45.010Z,5.63
2018-11-01T07:15:15.033Z,6.37
2018-11-01T07:17:43.944Z,7.33
2018-11-01T07:20:14.305Z,6.43
2018-11-01T07:22:44.415Z,8.53
2018-11-01T07:25:15.676Z,10.37
2018-11-01T07:27:44.686Z,8.50
2018-11-01T07:30:16.721Z,8.93
2018-11-01T07:32:46.596Z,8.50
2018-11-01T07:35:15.590Z,6.30
2018-11-01T07:37:44.860Z,8.50
2018-11-01T07:40:16.436Z,9.40
2018-11-01T07:42:45.857Z,7.03
2018-11-01T07:45:15.589Z,9.50
2018-11-01T07:47:45.221Z,8.13
2018-11-01T07:50:14.301Z,8.27
2018-11-01T07:52:43.294Z,7.50
2018-11-01T07:55:14.123Z,7.50
2018-11-01T07:57:42.915Z,6.50
2018-11-01T08:00:13.956Z,6.20
2018-11-01T08:02:43.650Z,6.17
2018-11-01T08:05:13.312Z,6.53
2018-11-01T08:07:42.909Z,7.77
2018-11-01T08:10:14.684Z,8.23
2018-11-01T08:12:44.454Z,7.13
2018-11-01T08:15:16.386Z,9.70
2018-11-01T08:17:44.979Z,7.80
2018-11-01T08:20:18.918Z,9.90
2018-11-01T08:22:56.859Z,7.47
2018-11-01T08:25:32.033Z,9.60
2018-11-01T08:28:01.814Z,9.33
2018-11-01T08:30:30.596Z,11.63
2018-11-01T08:33:08.153Z,10.73
2018-11-01T08:35:42.725Z,11.13
2018-11-01T08:38:15.667Z,10.23
2018-11-01T08:40:48.182Z,9.07
2018-11-01T08:43:20.695Z,9.57
2018-11-01T08:45:51.601Z,9.57
2018-11-01T08:48:29.030Z,10.80
2018-11-01T08:51:02.678Z,13.03
2018-11-01T08:53:37.515Z,10.13
2018-11-01T08:56:11.558Z,9.67
2018-11-01T08:59:10.942Z,8.50
2018-11-01T09:02:05.232Z,9.87
2018-11-01T09:04:50.562Z,8.33
2018-11-01T09:07:23.108Z,7.90
2018-11-01T09:10:09.187Z,11.00
2018-11-01T09:13:12.249Z,10.07
2018-11-01T09:16:12.795Z,7.80
2018-11-01T09:18:51.750Z,9.20
2018-11-01T09:21:21.089Z,11.13
2018-11-01T09:23:50.938Z,9.07
2018-11-01T09:26:19.717Z,9.30
2018-11-01T09:28:48.871Z,7.13
2018-11-01T09:34:14.529Z,7.87
2018-11-01T09:36:50.163Z,8.80
2018-11-01T09:39:35.912Z,9.27
2018-11-01T09:42:11.149Z,9.33
2018-11-01T09:45:07.242Z,7.93
2018-11-01T09:48:06.172Z,7.77
2018-11-01T09:50:39.333Z,8.47
2018-11-01T09:53:11.931Z,6.57
2018-11-01T09:55:55.789Z,7.93
2018-11-01T09:58:28.878Z,8.57
2018-11-01T10:01:06.356Z,7.87
2018-11-01T10:03:37.962Z,6.23
2018-11-01T10:06:12.225Z,7.07
2018-11-01T10:08:55.244Z,8.60
2018-11-01T10:11:36.034Z,8.67
2018-11-01T10:14:15.853Z,15.50
2018-11-01T10:17:04.976Z,14.30
2018-11-01T10:20:15.474Z,9.80
2018-11-01T10:22:56.645Z,11.10
2018-11-01T10:25:40.569Z,10.40
2018-11-01T10:28:09.698Z,8.47
2018-11-01T10:30:39.176Z,9.93
2018-11-01T10:33:09.070Z,10.23
2018-11-01T10:35:37.873Z,8.57
2018-11-01T10:38:07.102Z,7.60
2018-11-01T10:40:36.576Z,9.10
2018-11-01T10:43:05.456Z,15.67
2018-11-01T10:45:34.369Z,15.43
2018-11-01T10:48:04.389Z,10.03
2018-11-01T10:50:33.804Z,8.77
2018-11-01T10:53:03.453Z,7.67
2018-11-01T10:55:33.625Z,9.43
2018-11-01T10:58:02.826Z,6.87
2018-11-01T11:00:37.113Z,9.20
2018-11-01T11:03:05.908Z,7.00
2018-11-01T11:05:35.157Z,7.90
2018-11-01T11:08:04.508Z,11.47
2018-11-01T11:10:33.433Z,8.00
2018-11-01T11:13:03.404Z,8.27
2018-11-01T11:15:32.026Z,8.20
2018-11-01T11:18:01.192Z,11.77
2018-11-01T11:20:31.026Z,11.33
2018-11-01T11:23:00.175Z,10.27
2018-11-01T11:25:29.287Z,9.73
2018-11-01T11:27:58.212Z,8.83
2018-11-01T11:30:27.985Z,9.00
2018-11-01T11:32:56.672Z,7.93
2018-11-01T11:35:26.630Z,7.33
2018-11-01T11:37:55.178Z,11.37
2018-11-01T11:40:24.641Z,7.87
2018-11-01T11:42:54.948Z,8.00
2018-11-01T11:45:24.104Z,9.40
2018-11-01T11:47:53.268Z,9.37
2018-11-01T11:50:22.388Z,9.00
2018-11-01T11:52:51.247Z,11.30
2018-11-01T11:55:20.342Z,15.93
2018-11-01T11:57:49.741Z,18.73
2018-11-01T12:00:18.348Z,21.47
2018-11-01T12:02:47.563Z,16.67
2018-11-01T12:05:16.422Z,17.73
2018-11-01T12:07:45.302Z,10.60
2018-11-01T12:10:14.663Z,9.60
2018-11-01T12:12:43.456Z,13.77
2018-11-01T12:15:12.609Z,10.60
2018-11-01T12:17:41.581Z,8.37
2018-11-01T12:20:11.960Z,7.90
2018-11-01T12:22:41.205Z,7.20
2018-11-01T12:25:10.778Z,7.20
2018-11-01T12:27:39.905Z,8.90
2018-11-01T12:30:10.345Z,7.07
2018-11-01T12:32:39.507Z,8.93
2018-11-01T12:35:09.181Z,9.37
2018-11-01T12:37:38.046Z,10.27
2018-11-01T12:40:08.240Z,7.70
2018-11-01T12:42:37.922Z,10.90
2018-11-01T12:45:07.576Z,6.67
2018-11-01T12:47:36.401Z,8.83
2018-11-01T12:50:07.815Z,12.70
2018-11-01T12:52:36.517Z,15.17
2018-11-01T12:55:05.584Z,10.00
2018-11-01T12:57:34.567Z,7.37
2018-11-01T13:00:03.779Z,10.53
2018-11-01T13:02:32.643Z,8.13
2018-11-01T13:05:01.904Z,7.43
2018-11-01T13:07:31.040Z,7.60
2018-11-01T13:10:00.732Z,10.63
2018-11-01T13:12:29.367Z,8.73
2018-11-01T13:15:03.780Z,8.60
2018-11-01T13:17:45.406Z,8.83
2018-11-01T13:20:17.552Z,7.97
2018-11-01T13:22:46.987Z,7.23
2018-11-01T13:25:23.156Z,6.97
2018-11-01T13:28:01.784Z,7.57
2018-11-01T13:30:30.736Z,7.67
2018-11-01T13:33:01.171Z,9.93
2018-11-01T13:35:30.880Z,8.43
2018-11-01T13:37:59.694Z,7.20
2018-11-01T13:40:29.766Z,7.23
2018-11-01T13:42:58.282Z,6.93
2018-11-01T13:45:27.085Z,6.53
2018-11-01T13:47:56.492Z,6.30
2018-11-01T13:50:25.797Z,7.93
2018-11-01T13:52:54.615Z,8.20
2018-11-01T13:55:23.747Z,9.67
2018-11-01T13:57:52.854Z,9.63
2018-11-01T14:00:22.091Z,9.73
2018-11-01T14:02:51.206Z,9.60
2018-11-01T14:05:20.193Z,9.33
2018-11-01T14:07:49.512Z,8.67
2018-11-01T14:10:19.198Z,8.27
2018-11-01T14:12:47.805Z,7.80
2018-11-01T14:15:17.255Z,6.20
2018-11-01T14:17:46.161Z,6.80
2018-11-01T14:20:15.211Z,7.97
2018-11-01T14:22:44.268Z,7.30
2018-11-01T14:25:13.780Z,9.13
2018-11-01T14:27:43.129Z,9.53
2018-11-01T14:30:15.388Z,7.17
2018-11-01T14:32:44.481Z,7.77
2018-11-01T14:35:13.476Z,8.80
2018-11-01T14:37:42.764Z,9.97
2018-11-01T14:40:13.148Z,9.43
2018-11-01T14:42:42.055Z,10.20
2018-11-01T14:45:11.470Z,9.30
2018-11-01T14:47:40.677Z,9.80
2018-11-01T14:50:10.010Z,10.77
2018-11-01T14:52:39.360Z,8.23
2018-11-01T14:55:09.492Z,10.20
2018-11-01T14:57:38.227Z,10.67
2018-11-01T15:00:06.434Z,14.33
2018-11-01T15:02:35.904Z,13.30
2018-11-01T15:05:04.951Z,11.67
2018-11-01T15:07:33.513Z,10.37
2018-11-01T15:10:02.867Z,10.20
2018-11-01T15:12:31.672Z,12.17
2018-11-01T15:15:00.700Z,12.67
2018-11-01T15:17:30.547Z,15.67
2018-11-01T15:19:59.373Z,15.17
2018-11-01T15:22:29.241Z,13.47
2018-11-01T15:24:58.703Z,15.07
2018-11-01T15:27:27.760Z,15.97
2018-11-01T15:29:56.704Z,13.40
2018-11-01T15:32:29.484Z,14.87
2018-11-01T15:34:59.420Z,13.43
2018-11-01T15:37:28.981Z,14.27
2018-11-01T15:39:58.394Z,14.03
2018-11-01T15:42:27.633Z,14.20
2018-11-01T15:44:56.460Z,13.10
2018-11-01T15:47:25.320Z,16.20
2018-11-01T15:49:54.720Z,19.37
2018-11-01T15:52:24.023Z,17.77
2018-11-01T15:54:54.240Z,26.00
2018-11-01T15:57:24.357Z,24.33
2018-11-01T15:59:53.348Z,22.57
2018-11-01T16:02:23.195Z,27.33
2018-11-01T16:04:52.595Z,17.53
2018-11-01T16:07:21.812Z,17.33
2018-11-01T16:09:51.073Z,25.90
2018-11-01T16:12:20.703Z,18.93
2018-11-01T16:14:49.864Z,22.47
2018-11-01T16:17:19.228Z,19.70
2018-11-01T16:19:48.489Z,18.37
2018-11-01T16:22:16.991Z,19.03
2018-11-01T16:24:46.317Z,16.63
2018-11-01T16:27:15.547Z,14.73
2018-11-01T16:29:44.994Z,14.37
2018-11-01T16:32:13.967Z,14.33
2018-11-01T16:34:43.022Z,13.90
2018-11-01T16:37:12.835Z,16.03
2018-11-01T16:39:41.630Z,15.63
2018-11-01T16:42:10.503Z,16.90
2018-11-01T16:44:39.980Z,16.03
2018-11-01T16:47:09.666Z,18.73
2018-11-01T16:49:38.980Z,22.30
2018-11-01T16:52:08.386Z,19.90
2018-11-01T16:54:38.532Z,21.50
2018-11-01T16:57:07.171Z,20.13
2018-11-01T16:59:36.456Z,27.37
2018-11-01T17:02:10.934Z,21.53
2018-11-01T17:04:45.609Z,20.27
2018-11-01T17:07:49.948Z,21.90
2018-11-01T17:10:21.893Z,20.53
2018-11-01T17:12:58.383Z,20.53
2018-11-01T17:15:46.411Z,20.00
2018-11-01T17:18:16.937Z,25.03
2018-11-01T17:20:46.385Z,24.43
2018-11-01T17:23:36.295Z,25.40
2018-11-01T17:26:22.619Z,17.63
2018-11-01T17:28:53.475Z,20.03
2018-11-01T17:31:30.749Z,17.70
2018-11-01T17:33:59.997Z,45.30
2018-11-01T17:36:28.532Z,44.93
2018-11-01T17:38:58.266Z,31.33
2018-11-01T17:41:27.443Z,30.00
2018-11-01T17:43:56.876Z,23.70
2018-11-01T17:46:25.816Z,19.30
2018-11-01T17:48:54.954Z,19.23
2018-11-01T17:51:23.884Z,18.03
2018-11-01T17:53:53.056Z,15.20
2018-11-01T17:56:22.827Z,17.33
2018-11-01T17:58:52.158Z,17.33
2018-11-01T18:01:21.362Z,15.47
2018-11-01T18:03:51.009Z,16.63
2018-11-01T18:06:20.665Z,18.70
2018-11-01T18:08:50.119Z,22.67
2018-11-01T18:11:19.242Z,19.40
2018-11-01T18:13:48.495Z,21.13
2018-11-01T18:16:17.938Z,15.13
2018-11-01T18:18:46.751Z,15.43
2018-11-01T18:21:15.334Z,17.00
2018-11-01T18:23:44.025Z,17.23
2018-11-01T18:26:13.685Z,15.83
2018-11-01T18:28:42.589Z,18.33
2018-11-01T18:31:12.722Z,17.57
2018-11-01T18:33:42.186Z,16.70
2018-11-01T18:36:11.218Z,17.53
2018-11-01T18:38:39.885Z,14.93
2018-11-01T18:41:09.221Z,26.50
2018-11-01T18:43:38.362Z,18.43
2018-11-01T18:46:08.328Z,16.57
2018-11-01T18:48:37.294Z,19.93
2018-11-01T18:51:07.342Z,17.20
2018-11-01T18:53:37.049Z,15.97
2018-11-01T18:56:06.522Z,16.93
2018-11-01T18:58:35.279Z,15.40
2018-11-01T19:01:04.195Z,19.80
2018-11-01T19:03:33.465Z,23.90
2018-11-01T19:06:03.502Z,18.07
2018-11-01T19:08:32.604Z,20.37
2018-11-01T19:11:01.492Z,18.17
2018-11-01T19:13:31.434Z,21.60
2018-11-01T19:15:59.991Z,15.87
2018-11-01T19:18:29.379Z,18.40
2018-11-01T19:20:58.971Z,17.07
2018-11-01T19:23:27.955Z,18.07
2018-11-01T19:25:57.438Z,18.97
2018-11-01T19:28:26.510Z,17.70
2018-11-01T19:30:55.637Z,18.77
2018-11-01T19:33:25.262Z,16.07
2018-11-01T19:35:54.293Z,17.50
2018-11-01T19:38:23.171Z,15.63
2018-11-01T19:40:51.781Z,19.03
2018-11-01T19:43:21.323Z,22.20
2018-11-01T19:45:50.713Z,17.47
2018-11-01T19:48:19.603Z,20.00
2018-11-01T19:50:49.208Z,17.80
2018-11-01T19:53:18.558Z,19.60
2018-11-01T19:55:47.819Z,16.53
2018-11-01T19:58:17.480Z,16.47
2018-11-01T20:00:47.302Z,19.80
2018-11-01T20:03:16.368Z,14.67
2018-11-01T20:05:45.960Z,19.53
2018-11-01T20:08:16.305Z,19.33
2018-11-01T20:10:45.501Z,18.83
2018-11-01T20:13:14.626Z,17.57
2018-11-01T20:15:44.176Z,19.30
2018-11-01T20:18:13.529Z,17.43
2018-11-01T20:20:42.858Z,16.43
2018-11-01T20:23:12.026Z,15.53
2018-11-01T20:25:40.770Z,22.37
2018-11-01T20:28:09.768Z,16.60
2018-11-01T20:30:38.943Z,15.93
2018-11-01T20:33:07.784Z,19.30
2018-11-01T20:35:36.399Z,21.13
2018-11-01T20:38:05.889Z,22.30
2018-11-01T20:40:34.818Z,17.93
2018-11-01T20:43:03.993Z,20.27
2018-11-01T20:45:32.916Z,21.73
2018-11-01T20:48:01.855Z,21.07
2018-11-01T20:50:31.005Z,18.07
2018-11-01T20:53:00.354Z,19.60
2018-11-01T20:55:30.675Z,19.73
2018-11-01T20:58:00.052Z,17.87
2018-11-01T21:00:29.098Z,17.83
2018-11-01T21:02:58.273Z,18.03
2018-11-01T21:05:28.313Z,18.47
2018-11-01T21:07:57.756Z,17.83
2018-11-01T21:10:27.535Z,19.63
2018-11-01T21:12:59.293Z,21.03
2018-11-01T21:15:29.776Z,24.13
2018-11-01T21:17:58.916Z,19.77
2018-11-01T21:20:28.205Z,20.73
2018-11-01T21:22:58.557Z,16.67
2018-11-01T21:25:27.568Z,18.83
2018-11-01T21:27:56.181Z,18.77
2018-11-01T21:30:25.248Z,21.17
2018-11-01T21:32:54.962Z,18.73
2018-11-01T21:35:24.113Z,19.83
2018-11-01T21:37:53.359Z,21.97
2018-11-01T21:40:22.649Z,17.23
2018-11-01T21:42:51.441Z,19.57
2018-11-01T21:45:20.480Z,20.87
2018-11-01T21:47:50.267Z,21.23
2018-11-01T21:50:19.526Z,22.00
2018-11-01T21:52:48.874Z,18.47
2018-11-01T21:55:18.050Z,16.40
2018-11-01T21:57:47.893Z,19.33
2018-11-01T22:00:17.109Z,17.17
2018-11-01T22:02:46.143Z,16.87
2018-11-01T22:05:16.497Z,16.47
2018-11-01T22:07:45.653Z,17.80
2018-11-01T22:10:15.068Z,17.83
2018-11-01T22:12:43.644Z,17.67
2018-11-01T22:15:12.792Z,14.57
2018-11-01T22:17:43.329Z,14.97
2018-11-01T22:20:12.454Z,13.40
2018-11-01T22:22:42.418Z,14.50
2018-11-01T22:25:11.925Z,16.67
2018-11-01T22:27:41.484Z,15.23
2018-11-01T22:30:11.385Z,13.93
2018-11-01T22:32:40.978Z,16.33
2018-11-01T22:35:10.627Z,16.53
2018-11-01T22:37:40.460Z,16.00
2018-11-01T22:40:10.221Z,14.07
2018-11-01T22:42:39.342Z,15.07
2018-11-01T22:45:09.708Z,18.53
2018-11-01T22:47:39.191Z,17.00
2018-11-01T22:50:08.804Z,15.57
2018-11-01T22:52:37.952Z,16.23
2018-11-01T22:55:07.994Z,13.80
2018-11-01T22:57:36.992Z,16.57
2018-11-01T23:00:07.432Z,14.10
2018-11-01T23:02:36.481Z,14.00
2018-11-01T23:05:06.141Z,15.93
2018-11-01T23:07:35.416Z,18.43
2018-11-01T23:10:05.296Z,14.03
2018-11-01T23:12:34.646Z,15.87
2018-11-01T23:15:04.016Z,14.17
2018-11-01T23:17:33.544Z,16.60
2018-11-01T23:20:03.035Z,15.87
2018-11-01T23:22:32.710Z,12.90
2018-11-01T23:25:01.936Z,15.97
2018-11-01T23:27:31.348Z,15.73
2018-11-01T23:30:01.417Z,13.00
2018-11-01T23:32:30.900Z,14.43
2018-11-01T23:35:00.038Z,16.07
2018-11-01T23:37:33.903Z,16.23
2018-11-01T23:40:07.738Z,12.80
2018-11-01T23:42:41.738Z,16.87
2018-11-01T23:45:16.943Z,14.27
2018-11-01T23:47:51.537Z,16.50
2018-11-01T23:50:32.244Z,16.47
2018-11-01T23:53:06.280Z,15.57
2018-11-01T23:55:35.230Z,14.67
2018-11-01T23:58:04.563Z,15.60
